createdAt,value
2018-11-06T00:01:19.769Z,15.30
2018-11-06T00:04:04.555Z,15.20
2018-11-06T00:06:46.400Z,15.10
2018-11-06T00:09:27.541Z,15.10
2018-11-06T00:12:09.120Z,15.10
2018-11-06T00:14:50.992Z,15.00
2018-11-06T00:17:32.515Z,15.00
2018-11-06T00:20:14.752Z,14.90
2018-11-06T00:22:56.459Z,14.90
2018-11-06T00:25:38.162Z,14.90
2018-11-06T00:28:20.488Z,14.90
2018-11-06T00:31:02.432Z,14.90
2018-11-06T00:33:43.990Z,14.80
2018-11-06T00:36:25.644Z,14.80
2018-11-06T00:39:08.544Z,14.80
2018-11-06T00:41:50.068Z,14.70
2018-11-06T00:44:31.774Z,14.70
2018-11-06T00:47:13.431Z,14.70
2018-11-06T00:49:55.597Z,14.60
2018-11-06T00:52:37.219Z,14.50
2018-11-06T00:55:18.401Z,14.50
2018-11-06T00:57:59.887Z,14.40
2018-11-06T01:00:41.527Z,14.40
2018-11-06T01:03:27.005Z,14.30
2018-11-06T01:06:08.851Z,14.20
2018-11-06T01:08:50.748Z,14.20
2018-11-06T01:11:33.053Z,14.10
2018-11-06T01:14:14.849Z,14.10
2018-11-06T01:16:56.156Z,14.00
2018-11-06T01:19:37.955Z,14.10
2018-11-06T01:22:18.998Z,14.10
2018-11-06T01:25:02.026Z,14.10
2018-11-06T01:27:43.851Z,14.00
2018-11-06T01:30:24.787Z,14.00
2018-11-06T01:33:06.660Z,13.90
2018-11-06T01:35:48.687Z,13.90
2018-11-06T01:38:31.089Z,13.90
2018-11-06T01:41:13.118Z,13.90
2018-11-06T01:43:54.844Z,13.80
2018-11-06T01:46:36.298Z,13.90
2018-11-06T01:49:18.473Z,13.90
2018-11-06T01:51:59.443Z,13.90
2018-11-06T01:54:41.063Z,13.80
2018-11-06T01:57:22.621Z,13.80
2018-11-06T02:00:04.523Z,13.80
2018-11-06T02:02:46.515Z,13.70
2018-11-06T02:05:27.740Z,13.70
2018-11-06T02:08:09.666Z,13.70
2018-11-06T02:10:50.871Z,13.70
2018-11-06T02:13:32.414Z,13.70
2018-11-06T02:16:13.893Z,13.70
2018-11-06T02:18:56.165Z,13.60
2018-11-06T02:21:37.154Z,13.60
2018-11-06T02:24:18.348Z,13.60
2018-11-06T02:26:59.483Z,13.60
2018-11-06T02:29:41.076Z,13.70
2018-11-06T02:32:23.533Z,13.60
2018-11-06T02:35:05.587Z,13.60
2018-11-06T02:37:46.966Z,13.60
2018-11-06T02:40:27.863Z,13.60
2018-11-06T02:43:09.632Z,13.50
2018-11-06T02:45:51.320Z,13.50
2018-11-06T02:48:33.322Z,13.50
2018-11-06T02:51:14.223Z,13.50
2018-11-06T02:53:56.023Z,13.50
2018-11-06T02:56:37.475Z,13.40
2018-11-06T02:59:20.983Z,13.40
2018-11-06T03:02:02.534Z,13.40
2018-11-06T03:04:44.454Z,13.40
2018-11-06T03:07:26.013Z,13.40
2018-11-06T03:10:07.813Z,13.40
2018-11-06T03:12:49.360Z,13.40
2018-11-06T03:15:30.668Z,13.40
2018-11-06T03:18:13.111Z,13.40
2018-11-06T03:20:54.239Z,13.30
2018-11-06T03:23:35.923Z,13.20
2018-11-06T03:26:17.615Z,13.20
2018-11-06T03:28:59.233Z,13.20
2018-11-06T03:31:41.023Z,13.20
2018-11-06T03:34:22.784Z,13.10
2018-11-06T03:37:04.473Z,13.10
2018-11-06T03:39:46.267Z,13.10
2018-11-06T03:42:27.268Z,13.10
2018-11-06T03:45:09.428Z,13.00
2018-11-06T03:47:51.342Z,13.10
2018-11-06T03:50:32.964Z,13.20
2018-11-06T03:53:13.927Z,13.20
2018-11-06T03:55:55.941Z,13.20
2018-11-06T03:58:38.040Z,13.30
2018-11-06T04:01:19.182Z,13.30
2018-11-06T04:04:00.772Z,13.30
2018-11-06T04:06:42.358Z,13.30
2018-11-06T04:09:24.051Z,13.40
2018-11-06T04:12:06.107Z,13.30
2018-11-06T04:14:47.349Z,13.30
2018-11-06T04:17:28.816Z,13.30
2018-11-06T04:20:11.671Z,13.30
2018-11-06T04:22:53.138Z,13.30
2018-11-06T04:25:34.957Z,13.40
2018-11-06T04:28:16.746Z,13.30
2018-11-06T04:30:58.411Z,13.30
2018-11-06T04:33:39.486Z,13.30
2018-11-06T04:36:21.342Z,13.30
2018-11-06T04:39:02.756Z,13.20
2018-11-06T04:41:44.250Z,13.30
2018-11-06T04:44:25.862Z,13.30
2018-11-06T04:47:08.248Z,13.30
2018-11-06T04:49:49.424Z,13.30
2018-11-06T04:52:32.242Z,13.40
2018-11-06T04:55:14.164Z,13.40
2018-11-06T04:57:55.829Z,13.40
2018-11-06T05:00:38.408Z,13.40
2018-11-06T05:03:19.751Z,13.40
2018-11-06T05:06:01.737Z,13.40
2018-11-06T05:08:43.702Z,13.30
2018-11-06T05:11:24.687Z,13.30
2018-11-06T05:14:07.072Z,13.30
2018-11-06T05:16:48.007Z,13.30
2018-11-06T05:19:29.554Z,13.20
2018-11-06T05:22:11.149Z,13.20
2018-11-06T05:24:53.757Z,13.20
2018-11-06T05:27:36.157Z,13.20
2018-11-06T05:30:17.520Z,13.20
2018-11-06T05:32:59.964Z,13.20
2018-11-06T05:35:41.579Z,13.20
2018-11-06T05:38:23.160Z,13.10
2018-11-06T05:41:06.475Z,13.10
2018-11-06T05:43:47.382Z,13.10
2018-11-06T05:46:28.946Z,13.10
2018-11-06T05:49:10.541Z,13.00
2018-11-06T05:51:52.612Z,13.00
2018-11-06T05:54:33.833Z,12.90
2018-11-06T05:57:15.512Z,12.90
2018-11-06T05:59:57.811Z,12.90
2018-11-06T06:02:38.988Z,12.80
2018-11-06T06:05:20.517Z,12.80
2018-11-06T06:08:02.317Z,12.80
2018-11-06T06:10:44.144Z,12.90
2018-11-06T06:13:25.425Z,12.80
2018-11-06T06:16:07.135Z,12.80
2018-11-06T06:18:48.707Z,12.80
2018-11-06T06:21:31.438Z,12.70
2018-11-06T06:24:14.137Z,12.60
2018-11-06T06:26:55.837Z,12.70
2018-11-06T06:29:38.452Z,12.70
2018-11-06T06:32:19.930Z,12.60
2018-11-06T06:35:01.528Z,12.50
2018-11-06T06:37:43.594Z,12.50
2018-11-06T06:40:24.589Z,12.50
2018-11-06T06:43:07.282Z,12.60
2018-11-06T06:45:49.637Z,12.60
2018-11-06T06:48:31.125Z,12.60
2018-11-06T06:51:12.915Z,12.60
2018-11-06T06:53:54.526Z,12.70
2018-11-06T06:56:36.169Z,12.80
2018-11-06T06:59:17.984Z,12.90
2018-11-06T07:01:59.590Z,13.10
2018-11-06T07:04:41.270Z,13.50
2018-11-06T07:07:22.939Z,14.20
2018-11-06T07:10:04.638Z,14.90
2018-11-06T07:12:45.886Z,15.70
2018-11-06T07:15:27.420Z,16.30
2018-11-06T07:18:08.469Z,16.90
2018-11-06T07:20:49.988Z,17.20
2018-11-06T07:23:31.546Z,17.50
2018-11-06T07:26:12.930Z,17.40
2018-11-06T07:28:54.529Z,17.10
2018-11-06T07:31:36.311Z,16.70
2018-11-06T07:34:17.803Z,16.30
2018-11-06T07:36:59.194Z,16.00
2018-11-06T07:39:41.003Z,15.70
2018-11-06T07:42:22.663Z,15.30
2018-11-06T07:45:04.482Z,15.10
2018-11-06T07:47:45.778Z,14.90
2018-11-06T07:50:27.215Z,14.90
2018-11-06T07:53:09.024Z,14.80
2018-11-06T07:55:50.485Z,14.60
2018-11-06T07:58:32.714Z,14.50
2018-11-06T08:01:13.711Z,14.30
2018-11-06T08:03:55.393Z,14.20
2018-11-06T08:06:36.764Z,14.10
2018-11-06T08:09:18.448Z,14.00
2018-11-06T08:12:00.622Z,14.00
2018-11-06T08:14:41.901Z,14.00
2018-11-06T08:17:24.345Z,13.90
2018-11-06T08:20:05.545Z,13.90
2018-11-06T08:22:47.722Z,14.00
2018-11-06T08:25:29.490Z,14.30
2018-11-06T08:28:11.107Z,14.40
2018-11-06T08:30:52.959Z,14.50
2018-11-06T08:33:33.977Z,14.70
2018-11-06T08:36:16.094Z,14.70
2018-11-06T08:38:57.664Z,14.70
2018-11-06T08:41:39.259Z,14.80
2018-11-06T08:44:20.946Z,14.80
2018-11-06T08:47:03.074Z,15.40
2018-11-06T08:49:44.451Z,16.60
2018-11-06T08:52:26.554Z,18.00
2018-11-06T08:55:07.351Z,19.50
2018-11-06T08:57:48.650Z,21.10
2018-11-06T09:00:30.406Z,21.90
2018-11-06T09:03:13.022Z,22.90
2018-11-06T09:05:53.910Z,24.20
2018-11-06T09:08:35.352Z,25.90
2018-11-06T09:11:17.072Z,27.30
2018-11-06T09:13:58.525Z,28.20
2018-11-06T09:16:40.057Z,28.70
2018-11-06T09:19:21.449Z,29.20
2018-11-06T09:22:03.411Z,30.00
2018-11-06T09:24:45.545Z,30.10
2018-11-06T09:27:27.084Z,30.80
2018-11-06T09:30:08.688Z,30.80
2018-11-06T09:32:50.285Z,30.80
2018-11-06T09:35:30.920Z,31.60
2018-11-06T09:38:11.576Z,31.90
2018-11-06T09:40:52.701Z,32.20
2018-11-06T09:43:34.565Z,32.30
2018-11-06T09:46:16.277Z,32.90
2018-11-06T09:48:58.277Z,32.90
2018-11-06T09:51:40.831Z,32.60
2018-11-06T09:54:22.697Z,31.80
2018-11-06T09:57:05.077Z,31.80
2018-11-06T09:59:46.111Z,32.30
2018-11-06T10:02:28.073Z,32.50
2018-11-06T10:05:10.581Z,32.00
2018-11-06T10:07:51.340Z,32.30
2018-11-06T10:10:32.788Z,31.90
2018-11-06T10:13:14.330Z,30.20
2018-11-06T10:15:55.143Z,28.70
2018-11-06T10:18:37.290Z,27.50
2018-11-06T10:21:18.972Z,26.90
2018-11-06T10:24:00.211Z,26.20
2018-11-06T10:26:41.630Z,25.30
2018-11-06T10:29:22.294Z,23.90
2018-11-06T10:32:03.192Z,21.90
2018-11-06T10:34:46.077Z,21.20
2018-11-06T10:37:28.100Z,20.50
2018-11-06T10:40:09.974Z,19.20
2018-11-06T10:42:51.462Z,18.60
2018-11-06T10:45:33.583Z,18.10
2018-11-06T10:48:14.811Z,17.60
2018-11-06T10:50:56.641Z,17.10
2018-11-06T10:53:38.262Z,16.80
2018-11-06T10:56:19.156Z,16.80
2018-11-06T10:59:01.102Z,16.80
2018-11-06T11:01:47.807Z,16.70
2018-11-06T11:04:30.248Z,16.90
2018-11-06T11:07:11.114Z,17.50
2018-11-06T11:09:52.839Z,18.10
2018-11-06T11:12:34.175Z,18.60
2018-11-06T11:15:15.750Z,19.10
2018-11-06T11:17:57.366Z,19.50
2018-11-06T11:20:39.596Z,19.50
2018-11-06T11:23:21.262Z,19.60
2018-11-06T11:26:02.457Z,19.30
2018-11-06T11:28:43.541Z,19.30
2018-11-06T11:31:25.282Z,19.50
2018-11-06T11:34:06.485Z,19.60
2018-11-06T11:36:48.067Z,19.90
2018-11-06T11:39:29.945Z,20.10
2018-11-06T11:42:11.636Z,20.10
2018-11-06T11:44:53.234Z,20.30
2018-11-06T11:47:35.679Z,20.10
2018-11-06T11:50:16.953Z,20.30
2018-11-06T11:52:58.299Z,20.40
2018-11-06T11:55:40.611Z,20.50
2018-11-06T11:58:21.681Z,20.70
2018-11-06T12:01:03.475Z,20.30
2018-11-06T12:03:44.570Z,19.60
2018-11-06T12:06:25.836Z,19.10
2018-11-06T12:09:07.649Z,18.80
2018-11-06T12:11:49.163Z,18.80
2018-11-06T12:14:30.527Z,18.60
2018-11-06T12:17:11.712Z,18.60
2018-11-06T12:19:53.060Z,18.50
2018-11-06T12:22:34.733Z,18.20
2018-11-06T12:25:16.731Z,18.10
2018-11-06T12:27:57.940Z,17.90
2018-11-06T12:30:39.416Z,17.70
2018-11-06T12:33:21.131Z,17.60
2018-11-06T12:36:02.797Z,17.50
2018-11-06T12:38:43.990Z,17.50
2018-11-06T12:41:25.773Z,17.60
2018-11-06T12:44:07.492Z,17.70
2018-11-06T12:46:48.956Z,17.70
2018-11-06T12:49:30.707Z,17.70
2018-11-06T12:52:12.637Z,17.90
2018-11-06T12:54:54.274Z,18.10
2018-11-06T12:57:35.711Z,18.50
2018-11-06T13:00:18.549Z,19.00
2018-11-06T13:03:00.665Z,19.30
2018-11-06T13:05:41.710Z,19.80
2018-11-06T13:08:23.634Z,19.90
2018-11-06T13:11:05.320Z,20.30
2018-11-06T13:13:46.197Z,20.60
2018-11-06T13:16:27.858Z,20.70
2018-11-06T13:19:08.961Z,20.30
2018-11-06T13:21:50.064Z,19.70
2018-11-06T13:24:31.833Z,19.70
2018-11-06T13:27:13.623Z,19.80
2018-11-06T13:29:55.015Z,19.90
2018-11-06T13:32:36.775Z,20.20
2018-11-06T13:35:19.114Z,20.50
2018-11-06T13:38:00.080Z,20.70
2018-11-06T13:40:41.849Z,20.90
2018-11-06T13:43:23.931Z,21.10
2018-11-06T13:46:04.922Z,21.90
2018-11-06T13:48:46.435Z,22.70
2018-11-06T13:51:27.998Z,23.70
2018-11-06T13:54:09.791Z,24.10
2018-11-06T13:56:51.177Z,23.80
2018-11-06T13:59:32.768Z,23.10
2018-11-06T14:02:14.250Z,22.20
2018-11-06T14:04:55.654Z,21.50
2018-11-06T14:07:38.655Z,21.40
2018-11-06T14:10:20.692Z,22.20
2018-11-06T14:13:01.762Z,23.60
2018-11-06T14:15:43.244Z,25.10
2018-11-06T14:18:25.829Z,26.60
2018-11-06T14:21:07.315Z,27.90
2018-11-06T14:23:48.889Z,28.80
2018-11-06T14:26:30.396Z,29.30
2018-11-06T14:29:12.091Z,29.00
2018-11-06T14:31:53.478Z,28.00
2018-11-06T14:34:34.889Z,27.00
2018-11-06T14:37:15.733Z,26.10
2018-11-06T14:39:57.271Z,25.30
2018-11-06T14:42:39.664Z,24.20
2018-11-06T14:45:20.732Z,23.60
2018-11-06T14:48:02.387Z,22.70
2018-11-06T14:50:44.382Z,21.90
2018-11-06T14:53:25.390Z,21.20
2018-11-06T14:56:07.162Z,20.40
2018-11-06T14:58:48.845Z,19.90
2018-11-06T15:01:30.429Z,19.20
2018-11-06T15:04:12.020Z,18.70
2018-11-06T15:06:53.418Z,18.20
2018-11-06T15:09:35.113Z,17.90
2018-11-06T15:12:16.814Z,17.60
2018-11-06T15:14:58.585Z,17.40
2018-11-06T15:17:41.396Z,17.30
2018-11-06T15:20:23.502Z,16.90
2018-11-06T15:23:04.736Z,16.80
2018-11-06T15:25:46.471Z,16.70
2018-11-06T15:28:27.780Z,16.70
2018-11-06T15:31:09.478Z,16.60
2018-11-06T15:33:51.267Z,16.60
2018-11-06T15:36:32.670Z,16.50
2018-11-06T15:39:13.962Z,16.50
2018-11-06T15:41:55.995Z,16.40
2018-11-06T15:44:37.796Z,16.30
2018-11-06T15:47:19.726Z,16.20
2018-11-06T15:50:02.723Z,16.20
2018-11-06T15:52:44.634Z,16.10
2018-11-06T15:55:25.690Z,16.00
2018-11-06T15:58:07.197Z,15.90
2018-11-06T16:00:49.525Z,15.80
2018-11-06T16:03:32.181Z,15.80
2018-11-06T16:06:13.192Z,15.70
2018-11-06T16:08:54.777Z,15.70
2018-11-06T16:11:36.972Z,15.60
2018-11-06T16:14:18.873Z,15.60
2018-11-06T16:17:00.750Z,15.60
2018-11-06T16:19:42.544Z,15.60
2018-11-06T16:22:23.641Z,15.60
2018-11-06T16:25:05.935Z,15.60
2018-11-06T16:27:47.326Z,15.50
2018-11-06T16:30:28.697Z,15.50
2018-11-06T16:33:10.293Z,15.50
2018-11-06T16:35:52.485Z,15.50
2018-11-06T16:38:33.913Z,15.30
2018-11-06T16:41:15.273Z,15.20
2018-11-06T16:43:57.168Z,15.10
2018-11-06T16:46:38.610Z,15.00
2018-11-06T16:49:20.356Z,14.80
2018-11-06T16:52:02.535Z,14.70
2018-11-06T16:54:43.895Z,14.70
2018-11-06T16:57:26.342Z,14.60
2018-11-06T17:00:08.110Z,14.50
2018-11-06T17:02:49.601Z,14.50
2018-11-06T17:05:31.218Z,14.50
2018-11-06T17:08:13.078Z,14.40
2018-11-06T17:10:54.264Z,14.40
2018-11-06T17:13:36.462Z,14.40
2018-11-06T17:16:18.161Z,14.30
2018-11-06T17:18:59.265Z,14.40
2018-11-06T17:21:41.982Z,14.40
2018-11-06T17:24:24.082Z,14.40
2018-11-06T17:27:06.362Z,14.40
2018-11-06T17:29:47.665Z,14.30
2018-11-06T17:32:29.834Z,14.20
2018-11-06T17:35:12.603Z,14.20
2018-11-06T17:37:54.513Z,14.10
2018-11-06T17:40:35.633Z,14.10
2018-11-06T17:43:17.324Z,14.00
2018-11-06T17:45:58.811Z,14.00
2018-11-06T17:48:40.631Z,14.00
2018-11-06T17:51:22.665Z,13.90
2018-11-06T17:54:03.703Z,13.90
2018-11-06T17:56:45.572Z,13.90
2018-11-06T17:59:26.650Z,14.00
2018-11-06T18:02:08.526Z,14.00
2018-11-06T18:04:49.416Z,14.00
2018-11-06T18:07:30.741Z,14.00
2018-11-06T18:10:13.854Z,14.00
2018-11-06T18:12:55.923Z,14.20
2018-11-06T18:15:37.483Z,14.10
2018-11-06T18:18:19.205Z,14.10
2018-11-06T18:21:00.515Z,14.00
2018-11-06T18:23:42.957Z,14.00
2018-11-06T18:26:24.340Z,14.00
2018-11-06T18:29:06.673Z,14.00
2018-11-06T18:31:47.826Z,14.00
2018-11-06T18:34:29.072Z,14.00
2018-11-06T18:37:12.089Z,14.00
2018-11-06T18:39:53.890Z,14.00
2018-11-06T18:42:35.575Z,13.90
2018-11-06T18:45:17.381Z,13.90
2018-11-06T18:47:58.442Z,13.90
2018-11-06T18:50:40.876Z,13.90
2018-11-06T18:53:21.948Z,13.90
2018-11-06T18:56:03.448Z,13.90
2018-11-06T18:58:45.887Z,13.90
2018-11-06T19:01:27.695Z,13.90
2018-11-06T19:04:09.141Z,13.80
2018-11-06T19:06:53.112Z,13.90
2018-11-06T19:09:35.361Z,13.90
2018-11-06T19:12:16.511Z,13.90
2018-11-06T19:14:58.360Z,13.80
2018-11-06T19:17:39.993Z,13.80
2018-11-06T19:20:21.787Z,13.80
2018-11-06T19:23:03.526Z,13.80
2018-11-06T19:25:45.884Z,13.90
2018-11-06T19:28:26.999Z,13.90
2018-11-06T19:31:08.607Z,13.90
2018-11-06T19:33:50.311Z,14.00
2018-11-06T19:36:31.683Z,13.90
2018-11-06T19:39:14.442Z,13.90
2018-11-06T19:41:55.927Z,13.90
2018-11-06T19:44:37.618Z,13.90
2018-11-06T19:47:19.165Z,13.80
2018-11-06T19:50:00.839Z,13.90
2018-11-06T19:52:43.088Z,13.80
2018-11-06T19:55:24.689Z,13.90
2018-11-06T19:58:06.485Z,13.80
2018-11-06T20:00:48.223Z,13.80
2018-11-06T20:03:30.226Z,13.80
2018-11-06T20:06:11.638Z,13.70
2018-11-06T20:08:54.403Z,13.70
2018-11-06T20:11:35.561Z,13.70
2018-11-06T20:14:16.937Z,13.70
2018-11-06T20:16:59.576Z,13.60
2018-11-06T20:19:41.478Z,13.60
2018-11-06T20:22:23.961Z,13.50
2018-11-06T20:25:05.474Z,13.50
2018-11-06T20:27:47.163Z,13.50
2018-11-06T20:30:29.233Z,13.50
2018-11-06T20:33:11.093Z,13.50
2018-11-06T20:35:53.270Z,13.50
2018-11-06T20:38:35.041Z,13.50
2018-11-06T20:41:17.057Z,13.50
2018-11-06T20:43:58.001Z,13.50
2018-11-06T20:46:39.899Z,13.60
2018-11-06T20:49:21.970Z,13.50
2018-11-06T20:52:04.504Z,13.50
2018-11-06T20:54:46.179Z,13.50
2018-11-06T20:57:28.283Z,13.50
2018-11-06T21:00:13.304Z,13.50
2018-11-06T21:02:55.863Z,13.50
2018-11-06T21:05:37.805Z,13.60
2018-11-06T21:08:18.877Z,13.60
2018-11-06T21:11:00.999Z,13.60
2018-11-06T21:13:42.744Z,13.60
2018-11-06T21:16:23.820Z,13.60
2018-11-06T21:19:05.955Z,13.60
2018-11-06T21:21:47.821Z,13.60
2018-11-06T21:24:29.672Z,13.60
2018-11-06T21:27:11.836Z,13.60
2018-11-06T21:29:53.328Z,13.60
2018-11-06T21:32:35.021Z,13.60
2018-11-06T21:35:17.389Z,13.60
2018-11-06T21:37:59.640Z,13.60
2018-11-06T21:40:42.019Z,13.60
2018-11-06T21:43:24.109Z,13.60
2018-11-06T21:46:06.548Z,13.60
2018-11-06T21:48:47.595Z,13.60
2018-11-06T21:51:29.224Z,13.60
2018-11-06T21:54:11.078Z,13.60
2018-11-06T21:56:53.811Z,13.60
2018-11-06T21:59:35.911Z,13.60
2018-11-06T22:02:17.105Z,13.50
2018-11-06T22:04:58.764Z,13.60
2018-11-06T22:07:40.929Z,13.50
2018-11-06T22:10:22.382Z,13.50
2018-11-06T22:13:04.409Z,13.60
2018-11-06T22:15:47.169Z,13.60
2018-11-06T22:18:28.756Z,13.50
2018-11-06T22:21:11.644Z,13.50
2018-11-06T22:23:53.375Z,13.50
2018-11-06T22:26:34.479Z,13.50
2018-11-06T22:29:15.848Z,13.50
2018-11-06T22:31:58.135Z,13.50
2018-11-06T22:34:39.864Z,13.50
2018-11-06T22:37:21.705Z,13.50
2018-11-06T22:40:03.693Z,13.50
2018-11-06T22:42:46.285Z,13.50
2018-11-06T22:45:28.533Z,13.50
2018-11-06T22:48:10.781Z,13.50
2018-11-06T22:50:51.815Z,13.60
2018-11-06T22:53:34.148Z,13.60
2018-11-06T22:56:15.435Z,13.60
2018-11-06T22:58:57.228Z,13.60
2018-11-06T23:01:38.990Z,13.60
2018-11-06T23:04:20.575Z,13.60
2018-11-06T23:07:12.969Z,13.60
2018-11-06T23:09:55.319Z,13.60
2018-11-06T23:12:36.709Z,13.60
2018-11-06T23:15:18.245Z,13.60
2018-11-06T23:18:00.093Z,13.60
2018-11-06T23:20:41.762Z,13.50
2018-11-06T23:23:23.197Z,13.50
2018-11-06T23:26:04.824Z,13.50
2018-11-06T23:28:46.491Z,13.60
2018-11-06T23:31:28.276Z,13.50
2018-11-06T23:34:09.673Z,13.50
2018-11-06T23:36:51.108Z,13.60
2018-11-06T23:39:32.909Z,13.50
2018-11-06T23:42:14.538Z,13.50
2018-11-06T23:44:56.355Z,13.50
2018-11-06T23:47:38.282Z,13.50
2018-11-06T23:50:19.565Z,13.50
2018-11-06T23:53:00.993Z,13.50
2018-11-06T23:55:42.129Z,13.50
2018-11-06T23:58:23.725Z,13.50
